Time;durP1;ratioP1;P1;durP2;ratioP2;P2;SDS_P1;SDS_P2;PMS_P1;PMS_P2;Temp;Humidity;BMP_temperature;BMP_pressure;BME280_temperature;BME280_humidity;BME280_pressure;Samples;Min_cycle;Max_cycle;Signal;HPM_P1;HPM_P2
2023/04/01 00:00:04;;;;;;;7.30;2.15;;;10.10;99.90;;;;;;5120095;28;20031;-59
2023/04/01 00:02:37;;;;;;;9.02;2.88;;;10.10;99.90;;;;;;5119485;28;20110;-59
2023/04/01 00:05:05;;;;;;;9.00;2.80;;;10.10;99.90;;;;;;5118805;28;20439;-59
2023/04/01 00:07:31;;;;;;;6.00;2.40;;;10.20;99.90;;;;;;5102029;28;20040;-60
2023/04/01 00:09:57;;;;;;;7.35;3.05;;;10.30;99.90;;;;;;5118726;28;20081;-60
2023/04/01 00:12:24;;;;;;;9.65;3.20;;;10.20;99.90;;;;;;5119266;28;20278;-59
2023/04/01 00:14:51;;;;;;;9.40;3.08;;;10.10;99.90;;;;;;5118529;28;20031;-59
2023/04/01 00:17:16;;;;;;;6.93;3.10;;;10.10;99.90;;;;;;5118444;28;20106;-59
2023/04/01 00:19:43;;;;;;;4.65;3.20;;;10.10;99.90;;;;;;5101414;28;20077;-60
2023/04/01 00:22:11;;;;;;;6.22;3.47;;;10.10;99.90;;;;;;5119096;28;20078;-61
2023/04/01 00:24:38;;;;;;;8.25;4.18;;;10.20;99.90;;;;;;5118977;28;20115;-60
2023/04/01 00:27:04;;;;;;;13.38;4.22;;;10.20;99.90;;;;;;5118252;28;20024;-59
2023/04/01 00:29:31;;;;;;;7.97;4.40;;;10.20;99.90;;;;;;5118919;28;20115;-59
2023/04/01 00:31:57;;;;;;;9.02;4.55;;;10.20;99.90;;;;;;5101342;28;20032;-57
2023/04/01 00:34:24;;;;;;;8.57;4.55;;;10.10;99.90;;;;;;5118849;28;20080;-58
2023/04/01 00:36:52;;;;;;;13.50;5.50;;;10.10;99.90;;;;;;5118659;28;20346;-59
2023/04/01 00:39:19;;;;;;;9.88;4.70;;;10.20;99.90;;;;;;5117943;28;20020;-58
2023/04/01 00:41:45;;;;;;;12.45;5.47;;;10.10;99.90;;;;;;5118471;28;20062;-59
2023/04/01 00:44:23;;;;;;;8.52;4.82;;;10.10;99.90;;;;;;5117821;28;20055;-60
2023/04/01 00:46:49;;;;;;;9.38;5.38;;;10.00;99.90;;;;;;5118626;28;20081;-58
2023/04/01 00:49:18;;;;;;;11.10;5.38;;;10.00;99.90;;;;;;5101222;28;20442;-61
2023/04/01 00:51:48;;;;;;;10.10;5.82;;;10.00;99.90;;;;;;5117831;28;20024;-59
2023/04/01 00:54:16;;;;;;;9.93;5.90;;;10.10;99.90;;;;;;5118400;28;20028;-60
2023/04/01 00:56:49;;;;;;;9.43;6.47;;;10.10;99.90;;;;;;5118410;28;20039;-60
2023/04/01 00:59:22;;;;;;;13.40;7.07;;;10.20;99.90;;;;;;5117714;28;20392;-61
2023/04/01 01:01:48;;;;;;;12.40;7.63;;;10.20;99.90;;;;;;5118378;28;20403;-61
2023/04/01 01:04:26;;;;;;;11.10;7.25;;;10.20;99.90;;;;;;5117365;28;20031;-60
2023/04/01 01:07:29;;;;;;;12.82;7.47;;;10.20;99.90;;;;;;5117559;28;20034;-60
2023/04/01 01:10:33;;;;;;;10.55;7.55;;;10.10;99.90;;;;;;5117391;28;20030;-59
2023/04/01 01:13:15;;;;;;;11.60;8.05;;;10.10;99.90;;;;;;5118175;28;20042;-59
2023/04/01 01:16:10;;;;;;;16.80;8.85;;;10.20;99.90;;;;;;5118159;28;20027;-59
2023/04/01 01:18:53;;;;;;;14.88;8.77;;;10.20;99.90;;;;;;5117935;28;20320;-60
2023/04/01 01:21:31;;;;;;;;;;;10.20;99.90;;;;;;5118994;28;20115;-59
2023/04/01 01:24:10;;;;;;;15.32;9.00;;;10.20;99.90;;;;;;5117861;28;19912;-60
2023/04/01 01:26:53;;;;;;;15.93;9.50;;;10.30;99.90;;;;;;5118473;28;20024;-59
2023/04/01 01:29:47;;;;;;;14.00;9.30;;;10.20;99.90;;;;;;5117480;28;20363;-63
2023/04/01 01:32:35;;;;;;;17.50;10.13;;;10.10;99.90;;;;;;5117671;28;20027;-62
2023/04/01 01:35:33;;;;;;;17.52;10.48;;;10.10;99.90;;;;;;5089047;28;20032;-59
2023/04/01 01:38:14;;;;;;;18.05;10.52;;;10.00;99.90;;;;;;5111663;28;20101;-60
2023/04/01 01:40:44;;;;;;;;;;;10.10;99.90;;;;;;5117374;28;20188;-61
2023/04/01 01:43:14;;;;;;;15.07;9.18;;;10.10;99.90;;;;;;5117480;28;19939;-60
2023/04/01 01:45:46;;;;;;;9.98;6.55;;;10.10;99.90;;;;;;5116950;28;20027;-64
2023/04/01 01:48:12;;;;;;;8.32;5.32;;;10.10;99.90;;;;;;5117565;28;20019;-63
2023/04/01 01:50:40;;;;;;;12.40;5.47;;;10.00;99.90;;;;;;5099902;28;20038;-62
2023/04/01 01:53:09;;;;;;;11.10;5.32;;;10.00;99.90;;;;;;5116659;28;20308;-58
2023/04/01 01:55:37;;;;;;;13.77;5.70;;;10.00;99.90;;;;;;5116705;28;20380;-62
2023/04/01 01:58:15;;;;;;;10.73;6.53;;;10.00;99.90;;;;;;5099653;28;20104;-61
2023/04/01 02:00:46;;;;;;;10.38;6.10;;;10.00;99.90;;;;;;5117055;28;20295;-62
2023/04/01 02:03:14;;;;;;;12.15;6.43;;;9.90;99.90;;;;;;5116540;28;20030;-60
2023/04/01 02:05:40;;;;;;;14.63;7.43;;;10.00;99.90;;;;;;5117417;28;20030;-62
2023/04/01 02:08:18;;;;;;;10.30;7.22;;;10.00;99.90;;;;;;5116536;28;20046;-62
2023/04/01 02:10:55;;;;;;;13.77;8.65;;;10.10;99.90;;;;;;5116624;28;20084;-63
2023/04/01 02:13:35;;;;;;;13.02;9.70;;;10.00;99.90;;;;;;5116683;28;20036;-61
2023/04/01 02:16:09;;;;;;;12.48;8.90;;;10.00;99.90;;;;;;5116575;28;20031;-61
2023/04/01 02:18:38;;;;;;;12.05;9.32;;;10.10;99.90;;;;;;5117450;28;20050;-59
2023/04/01 02:21:07;;;;;;;10.20;8.00;;;10.20;99.90;;;;;;5100143;28;20031;-59
2023/04/01 02:23:35;;;;;;;9.38;8.23;;;10.10;99.90;;;;;;5117058;28;20122;-62
2023/04/01 02:26:04;;;;;;;10.88;8.65;;;10.10;99.90;;;;;;5099437;28;20099;-61
2023/04/01 02:28:32;;;;;;;11.18;8.75;;;10.10;99.90;;;;;;5117395;28;20027;-60
2023/04/01 02:31:02;;;;;;;9.15;8.18;;;10.00;99.90;;;;;;5116360;28;20023;-64
2023/04/01 02:33:29;;;;;;;11.43;8.10;;;10.00;99.90;;;;;;5117341;28;20035;-59
2023/04/01 02:35:55;;;;;;;10.07;7.63;;;9.90;99.90;;;;;;5117098;28;20350;-59
2023/04/01 02:38:22;;;;;;;11.05;8.07;;;10.00;99.90;;;;;;5116991;28;20059;-64
2023/04/01 02:40:51;;;;;;;12.88;8.23;;;10.00;99.90;;;;;;5100138;28;20487;-61
2023/04/01 02:43:19;;;;;;;9.85;8.10;;;10.00;99.90;;;;;;5120316;28;20088;-59
2023/04/01 02:45:45;;;;;;;10.50;7.53;;;10.00;99.90;;;;;;5121443;28;20063;-63
2023/04/01 02:48:12;;;;;;;10.98;7.30;;;10.00;99.90;;;;;;5120409;28;20047;-61
2023/04/01 02:50:38;;;;;;;8.63;6.47;;;10.00;99.90;;;;;;5120130;28;20070;-64
2023/04/01 02:53:06;;;;;;;8.75;6.57;;;10.10;99.90;;;;;;5120084;28;20396;-61
2023/04/01 02:55:32;;;;;;;7.82;6.70;;;10.00;99.90;;;;;;5120050;28;20118;-60
2023/04/01 02:57:59;;;;;;;10.35;7.20;;;10.10;99.90;;;;;;5103016;28;20028;-60
2023/04/01 03:00:25;;;;;;;7.90;5.63;;;10.10;99.90;;;;;;5102960;28;20412;-60
2023/04/01 03:02:51;;;;;;;6.80;5.43;;;10.20;99.90;;;;;;5119873;28;20023;-60
2023/04/01 03:05:17;;;;;;;6.85;5.28;;;10.10;99.90;;;;;;5119892;28;20030;-60
2023/04/01 03:07:44;;;;;;;6.32;4.70;;;10.10;99.90;;;;;;5120591;28;20027;-60
2023/04/01 03:10:10;;;;;;;5.68;4.10;;;10.10;99.90;;;;;;5119825;28;20019;-61
2023/04/01 03:12:36;;;;;;;6.63;4.47;;;10.00;99.90;;;;;;5119981;28;20110;-62
2023/04/01 03:15:02;;;;;;;6.43;4.72;;;10.00;99.90;;;;;;5119676;28;20027;-61
2023/04/01 03:17:28;;;;;;;6.10;5.00;;;10.10;99.90;;;;;;5102883;28;20024;-65
2023/04/01 03:19:54;;;;;;;6.35;4.70;;;10.10;99.90;;;;;;5120950;28;20472;-62
2023/04/01 03:22:20;;;;;;;7.85;5.47;;;10.10;99.90;;;;;;5120279;28;20035;-62
2023/04/01 03:24:50;;;;;;;12.48;6.78;;;10.00;99.90;;;;;;5120201;28;20485;-61
2023/04/01 03:27:16;;;;;;;7.32;5.50;;;10.00;99.90;;;;;;5119431;28;20034;-62
2023/04/01 03:29:42;;;;;;;7.30;5.97;;;9.90;99.90;;;;;;5120128;28;20023;-61
2023/04/01 03:32:08;;;;;;;6.88;5.25;;;9.90;99.90;;;;;;5120055;28;20028;-63
2023/04/01 03:34:34;;;;;;;8.43;6.05;;;9.90;99.90;;;;;;5120058;28;20031;-62
2023/04/01 03:37:00;;;;;;;9.32;6.05;;;9.90;99.90;;;;;;5120063;27;20052;-62
2023/04/01 03:39:26;;;;;;;11.32;6.72;;;9.90;99.90;;;;;;5120008;28;20028;-63
2023/04/01 03:41:51;;;;;;;9.25;6.43;;;10.00;99.90;;;;;;5119084;28;20052;-63
2023/04/01 03:44:17;;;;;;;11.27;6.43;;;9.90;99.90;;;;;;5102056;28;20028;-62
2023/04/01 03:46:46;;;;;;;11.25;6.43;;;9.90;99.90;;;;;;5102611;28;20116;-64
2023/04/01 03:49:12;;;;;;;9.20;6.65;;;10.00;99.90;;;;;;5119737;28;20405;-64
2023/04/01 03:51:43;;;;;;;11.27;6.72;;;10.00;99.90;;;;;;5101610;28;20281;-62
2023/04/01 03:54:10;;;;;;;9.95;6.72;;;9.90;99.90;;;;;;5118231;28;20035;-62
2023/04/01 03:56:37;;;;;;;10.65;6.90;;;10.00;99.90;;;;;;5118849;28;20116;-62
2023/04/01 03:59:05;;;;;;;11.27;6.88;;;10.00;99.90;;;;;;5119581;28;20402;-64
2023/04/01 04:01:31;;;;;;;10.52;6.38;;;10.00;99.90;;;;;;5101815;28;20111;-64
2023/04/01 04:03:58;;;;;;;11.57;6.97;;;10.00;99.90;;;;;;5118600;28;20035;-63
2023/04/01 04:06:24;;;;;;;12.15;7.60;;;9.90;99.90;;;;;;5118631;28;20305;-59
2023/04/01 04:08:51;;;;;;;14.20;7.78;;;9.90;99.90;;;;;;5118540;28;20074;-62
2023/04/01 04:11:17;;;;;;;13.20;8.02;;;10.00;99.90;;;;;;5119313;28;20027;-63
2023/04/01 04:13:44;;;;;;;14.38;8.75;;;9.90;99.90;;;;;;5101369;28;20126;-61
2023/04/01 04:16:10;;;;;;;13.40;8.80;;;9.80;99.90;;;;;;5118381;28;20028;-64
2023/04/01 04:18:40;;;;;;;15.23;9.30;;;9.80;99.90;;;;;;5118393;28;20020;-67
2023/04/01 04:21:06;;;;;;;19.08;9.45;;;9.90;99.90;;;;;;5118338;28;20370;-62
2023/04/01 04:23:33;;;;;;;14.13;8.18;;;9.90;99.90;;;;;;5118859;28;20039;-62
2023/04/01 04:26:03;;;;;;;12.68;7.75;;;9.90;99.90;;;;;;5118186;28;20088;-62
2023/04/01 04:28:29;;;;;;;14.73;7.53;;;9.80;99.90;;;;;;5118109;28;20284;-62
2023/04/01 04:30:57;;;;;;;11.13;6.68;;;9.80;99.90;;;;;;5118105;28;20024;-62
2023/04/01 04:33:23;;;;;;;14.15;8.20;;;9.90;99.90;;;;;;5117952;28;20419;-68
2023/04/01 04:35:50;;;;;;;13.60;7.82;;;9.80;99.90;;;;;;5117998;28;20112;-62
2023/04/01 04:38:17;;;;;;;15.93;6.90;;;9.80;99.90;;;;;;5117972;28;20031;-66
2023/04/01 04:40:43;;;;;;;11.35;6.88;;;9.70;99.90;;;;;;5117750;28;20058;-62
2023/04/01 04:43:14;;;;;;;13.30;7.88;;;9.80;99.90;;;;;;5117791;28;20043;-60
2023/04/01 04:45:41;;;;;;;9.57;6.65;;;9.70;99.90;;;;;;5117841;28;20297;-67
2023/04/01 04:48:16;;;;;;;12.05;6.80;;;9.60;99.90;;;;;;5117850;28;20489;-63
2023/04/01 04:50:42;;;;;;;13.73;7.32;;;9.70;99.90;;;;;;5118797;28;20019;-65
2023/04/01 04:53:12;;;;;;;10.70;7.32;;;9.70;99.90;;;;;;5117593;28;20031;-64
2023/04/01 04:55:46;;;;;;;14.80;8.68;;;9.80;99.90;;;;;;5117587;28;20055;-59
2023/04/01 04:58:30;;;;;;;16.42;10.07;;;9.80;99.90;;;;;;5118378;28;20070;-62
2023/04/01 05:00:56;;;;;;;14.77;9.18;;;9.90;99.90;;;;;;5117778;28;20031;-64
2023/04/01 05:03:27;;;;;;;13.65;9.75;;;9.80;99.90;;;;;;5117199;28;20293;-65
2023/04/01 05:05:53;;;;;;;11.18;7.97;;;9.70;99.90;;;;;;5117375;28;20032;-64
2023/04/01 05:08:20;;;;;;;10.88;8.10;;;9.60;99.90;;;;;;5117213;28;20363;-61
2023/04/01 05:10:46;;;;;;;11.48;7.68;;;9.70;99.90;;;;;;5117300;28;20039;-64
2023/04/01 05:13:12;;;;;;;10.70;7.80;;;9.70;99.90;;;;;;5117228;28;20308;-63
2023/04/01 05:15:39;;;;;;;8.50;6.70;;;9.60;99.90;;;;;;5083936;28;20028;-60
2023/04/01 05:18:05;;;;;;;10.93;7.60;;;9.60;99.90;;;;;;5117140;28;20293;-68
2023/04/01 05:20:31;;;;;;;13.75;8.77;;;9.60;99.90;;;;;;5100299;28;20035;-64
2023/04/01 05:22:58;;;;;;;13.82;9.25;;;9.60;99.90;;;;;;5116896;28;20036;-62
2023/04/01 05:25:25;;;;;;;14.00;10.15;;;9.60;99.90;;;;;;5117082;28;20122;-65
2023/04/01 05:27:51;;;;;;;13.93;9.82;;;9.60;99.90;;;;;;5117053;28;20059;-67
2023/04/01 05:30:17;;;;;;;12.57;9.02;;;9.60;99.90;;;;;;5117087;28;20077;-65
2023/04/01 05:33:01;;;;;;;12.65;8.77;;;9.60;99.90;;;;;;5117392;28;20312;-65
2023/04/01 05:35:27;;;;;;;13.23;9.90;;;9.60;99.90;;;;;;5099966;28;20027;-62
2023/04/01 05:37:53;;;;;;;14.02;10.38;;;9.60;99.90;;;;;;5117933;28;20389;-67
2023/04/01 05:40:20;;;;;;;16.35;11.88;;;9.60;99.90;;;;;;5117673;28;20089;-66
2023/04/01 05:42:46;;;;;;;15.93;11.80;;;9.70;99.90;;;;;;5076893;28;20037;-60
2023/04/01 05:45:15;;;;;;;16.55;11.60;;;9.60;99.90;;;;;;5075988;28;20059;-67
2023/04/01 05:47:59;;;;;;;15.13;11.20;;;9.70;99.90;;;;;;5076655;28;20075;-65
2023/04/01 05:50:28;;;;;;;17.48;11.40;;;9.70;99.90;;;;;;5075967;28;20032;-66
2023/04/01 05:52:54;;;;;;;16.98;11.30;;;9.80;99.90;;;;;;5076672;28;20044;-66
2023/04/01 05:55:21;;;;;;;17.67;11.15;;;9.70;99.90;;;;;;5075907;28;20033;-66
2023/04/01 05:57:49;;;;;;;15.27;10.82;;;9.70;99.90;;;;;;5075980;28;20287;-64
2023/04/01 06:00:17;;;;;;;12.32;9.50;;;9.60;99.90;;;;;;5076022;28;20029;-64
2023/04/01 06:02:43;;;;;;;13.15;9.98;;;9.60;99.90;;;;;;5075813;28;20048;-64
2023/04/01 06:05:20;;;;;;;13.23;9.50;;;9.60;99.90;;;;;;5075743;28;20075;-64
2023/04/01 06:07:47;;;;;;;15.48;12.20;;;9.60;99.90;;;;;;5076577;28;20048;-64
2023/04/01 06:10:16;;;;;;;13.60;10.90;;;9.60;99.90;;;;;;5076015;28;20035;-65
2023/04/01 06:13:05;;;;;;;15.45;10.70;;;9.70;99.90;;;;;;5075984;28;20029;-65
2023/04/01 06:16:00;;;;;;;12.45;9.98;;;9.70;99.90;;;;;;5076594;28;20033;-64
2023/04/01 06:19:04;;;;;;;14.60;11.27;;;9.70;99.90;;;;;;5044516;28;20049;-63
2023/04/01 06:21:47;;;;;;;17.42;11.48;;;9.60;99.90;;;;;;5079873;28;20359;-64
2023/04/01 06:24:22;;;;;;;13.63;9.13;;;9.70;99.90;;;;;;5079740;28;20044;-67
2023/04/01 06:26:57;;;;;;;12.68;8.90;;;9.70;99.90;;;;;;5096750;28;20055;-66
2023/04/01 06:30:06;;;;;;;9.98;8.45;;;9.60;99.90;;;;;;5080805;28;20074;-65
2023/04/01 06:33:03;;;;;;;10.80;9.68;;;9.60;99.90;;;;;;5065888;28;20024;-63
2023/04/01 06:35:48;;;;;;;15.13;10.98;;;9.70;99.90;;;;;;5079751;28;20028;-64
2023/04/01 06:38:41;;;;;;;15.05;10.35;;;9.60;99.90;;;;;;5079639;28;20056;-66
2023/04/01 06:41:25;;;;;;;10.38;9.23;;;9.60;99.90;;;;;;5092450;28;20112;-66
2023/04/01 06:44:19;;;;;;;12.93;11.30;;;9.60;99.90;;;;;;5119927;28;20040;-65
2023/04/01 06:47:34;;;;;;;14.77;11.60;;;9.70;99.90;;;;;;5121059;28;20082;-67
2023/04/01 06:50:29;;;;;;;21.45;11.45;;;9.70;99.90;;;;;;5120868;28;20078;-67
2023/04/01 06:53:47;;;;;;;15.02;8.90;;;9.80;99.90;;;;;;5120877;28;20035;-68
2023/04/01 06:56:34;;;;;;;11.40;8.50;;;9.80;99.90;;;;;;5120321;28;20389;-66
2023/04/01 06:59:22;;;;;;;7.63;6.82;;;9.80;99.90;;;;;;5119718;28;20078;-67
2023/04/01 07:01:57;;;;;;;8.00;7.03;;;9.70;99.90;;;;;;5119744;28;20038;-67
2023/04/01 07:04:31;;;;;;;9.63;7.28;;;9.70;99.90;;;;;;5119578;28;20028;-68
2023/04/01 07:07:18;;;;;;;11.45;7.22;;;9.70;99.90;;;;;;5119668;28;20028;-67
2023/04/01 07:09:58;;;;;;;9.50;6.82;;;9.70;99.90;;;;;;5119412;28;20023;-67
2023/04/01 07:12:37;;;;;;;8.15;6.00;;;9.80;99.90;;;;;;5120474;28;20397;-67
2023/04/01 07:15:31;;;;;;;6.80;5.88;;;9.80;99.90;;;;;;5120631;28;20092;-68
2023/04/01 07:18:04;;;;;;;8.90;7.13;;;9.80;99.90;;;;;;5119339;28;20031;-69
2023/04/01 07:20:35;;;;;;;8.13;7.32;;;9.90;99.90;;;;;;5118783;28;20036;-66
2023/04/01 07:23:08;;;;;;;8.40;6.75;;;9.80;99.90;;;;;;5118796;28;20057;-67
2023/04/01 07:26:22;;;;;;;7.18;5.93;;;9.80;99.90;;;;;;5105274;28;20038;-67
2023/04/01 07:29:10;;;;;;;8.15;6.53;;;9.80;99.90;;;;;;5119436;28;20035;-64
2023/04/01 07:32:08;;;;;;;7.40;5.82;;;9.70;99.90;;;;;;5120318;28;20387;-64
2023/04/01 07:34:39;;;;;;;6.53;5.93;;;9.80;99.90;;;;;;5119329;28;20104;-62
2023/04/01 07:37:16;;;;;;;6.43;5.82;;;9.80;99.90;;;;;;5119503;28;20047;-64
2023/04/01 07:39:56;;;;;;;5.72;4.72;;;9.70;99.90;;;;;;5119244;28;20028;-64
2023/04/01 07:42:43;;;;;;;5.40;4.70;;;9.80;99.90;;;;;;5119795;28;20093;-65
2023/04/01 07:45:25;;;;;;;4.55;4.03;;;9.90;99.90;;;;;;5119732;28;20067;-68
2023/04/01 07:48:32;;;;;;;4.90;4.40;;;9.80;99.90;;;;;;5119599;28;20054;-62
2023/04/01 07:51:02;;;;;;;5.70;5.10;;;9.90;99.90;;;;;;5104620;28;20293;-64
2023/04/01 07:53:41;;;;;;;8.77;6.15;;;9.90;99.90;;;;;;5118855;28;20050;-66
2023/04/01 07:56:40;;;;;;;7.97;5.85;;;9.90;99.90;;;;;;5118871;28;20083;-63
2023/04/01 07:59:51;;;;;;;7.53;6.03;;;9.80;99.90;;;;;;5113614;28;20294;-70
2023/04/01 08:02:48;;;;;;;6.97;5.53;;;9.90;99.90;;;;;;5112153;28;20036;-65
2023/04/01 08:05:36;;;;;;;7.32;5.72;;;9.90;99.90;;;;;;5119470;28;20490;-65
2023/04/01 08:08:25;;;;;;;5.35;4.82;;;10.00;99.90;;;;;;5102053;28;20058;-64
2023/04/01 08:12:01;;;;;;;5.38;4.78;;;10.00;99.90;;;;;;5057298;28;20055;-64
2023/04/01 08:15:10;;;;;;;5.38;4.45;;;10.10;99.90;;;;;;5057687;28;20053;-65
2023/04/01 08:18:13;;;;;;;5.15;4.72;;;10.10;99.90;;;;;;5116114;28;20050;-67
2023/04/01 08:20:58;;;;;;;5.22;4.55;;;10.10;99.90;;;;;;5118344;28;20120;-66
2023/04/01 08:23:30;;;;;;;5.53;4.50;;;10.10;99.90;;;;;;5101233;28;20055;-64
2023/04/01 08:26:22;;;;;;;6.50;4.68;;;10.10;99.90;;;;;;5101482;28;20395;-68
2023/04/01 08:29:46;;;;;;;5.75;4.90;;;10.10;99.90;;;;;;5118952;27;20062;-63
2023/04/01 08:32:22;;;;;;;5.75;4.32;;;10.00;99.90;;;;;;5096988;28;20354;-63
2023/04/01 08:34:58;;;;;;;5.82;5.03;;;10.00;99.90;;;;;;5118848;28;20031;-66
2023/04/01 08:37:36;;;;;;;5.85;5.10;;;10.10;99.90;;;;;;5118335;28;20034;-65
2023/04/01 08:40:25;;;;;;;4.95;4.45;;;10.10;99.90;;;;;;5100919;28;20396;-65
2023/04/01 08:43:21;;;;;;;5.20;4.70;;;10.30;99.90;;;;;;5117911;28;20393;-67
2023/04/01 08:46:16;;;;;;;5.47;4.75;;;10.40;99.90;;;;;;5117916;28;20032;-67
2023/04/01 08:48:51;;;;;;;4.80;4.35;;;10.40;99.90;;;;;;5117840;28;20033;-62
2023/04/01 08:51:38;;;;;;;4.88;4.47;;;10.30;99.90;;;;;;5117840;28;20027;-63
2023/04/01 08:54:29;;;;;;;7.30;4.18;;;10.20;99.90;;;;;;5117836;28;20301;-61
2023/04/01 08:57:01;;;;;;;4.93;4.53;;;10.50;99.90;;;;;;5117903;28;20382;-64
2023/04/01 08:59:44;;;;;;;4.28;3.88;;;10.50;99.90;;;;;;5117848;28;20027;-62
2023/04/01 09:02:55;;;;;;;4.75;4.30;;;10.40;99.90;;;;;;5118270;28;20112;-66
2023/04/01 09:05:35;;;;;;;4.00;3.60;;;10.40;99.90;;;;;;5118257;28;20027;-64
2023/04/01 09:08:29;;;;;;;3.60;3.40;;;10.40;99.90;;;;;;5100546;28;20270;-61
2023/04/01 09:11:35;;;;;;;3.15;2.85;;;10.10;99.90;;;;;;5100789;28;20048;-65
2023/04/01 09:14:41;;;;;;;2.80;2.60;;;10.10;99.90;;;;;;5118165;28;20109;-63
2023/04/01 09:17:43;;;;;;;2.50;2.30;;;10.10;99.90;;;;;;5102344;28;20043;-62
2023/04/01 09:20:40;;;;;;;2.95;2.72;;;10.20;99.90;;;;;;5117163;28;20080;-62
2023/04/01 09:23:09;;;;;;;2.92;2.72;;;10.40;99.90;;;;;;5117119;28;20373;-62
2023/04/01 09:26:08;;;;;;;3.00;2.50;;;10.50;99.90;;;;;;5117796;28;20092;-59
2023/04/01 09:28:59;;;;;;;2.90;2.60;;;10.40;99.90;;;;;;5117160;28;20308;-62
2023/04/01 09:31:50;;;;;;;3.65;2.28;;;10.30;99.90;;;;;;5117075;28;20042;-66
2023/04/01 09:34:49;;;;;;;2.85;2.35;;;10.40;99.90;;;;;;5117746;28;20456;-69
2023/04/01 09:37:21;;;;;;;3.08;2.60;;;10.50;99.90;;;;;;5117296;28;20042;-64
2023/04/01 09:40:08;;;;;;;2.53;2.00;;;10.50;99.90;;;;;;5116956;28;20089;-65
2023/04/01 09:42:58;;;;;;;1.92;1.83;;;10.60;99.90;;;;;;5116798;28;20066;-62
2023/04/01 09:45:53;;;;;;;2.20;2.05;;;10.60;99.90;;;;;;5117649;28;20032;-63
2023/04/01 09:48:57;;;;;;;2.97;2.10;;;10.60;99.90;;;;;;5086142;28;20114;-59
2023/04/01 09:51:51;;;;;;;2.50;2.30;;;10.60;99.90;;;;;;5115901;28;20030;-64
2023/04/01 09:54:32;;;;;;;2.60;2.38;;;10.70;99.90;;;;;;5116657;28;20023;-65
2023/04/01 09:57:10;;;;;;;3.08;1.90;;;10.70;99.90;;;;;;5116714;28;20044;-62
2023/04/01 10:00:17;;;;;;;1.60;1.50;;;10.60;99.90;;;;;;5116792;28;20164;-64
2023/04/01 10:03:07;;;;;;;2.88;1.80;;;10.60;99.90;;;;;;5117208;28;20046;-66
2023/04/01 10:06:28;;;;;;;3.03;2.08;;;10.50;99.90;;;;;;5116514;28;20035;-62
2023/04/01 10:09:21;;;;;;;3.00;2.50;;;10.50;99.90;;;;;;5055356;28;20033;-64
2023/04/01 10:11:50;;;;;;;;;;;10.40;99.90;;;;;;5115211;28;20047;-63
2023/04/01 10:14:54;;;;;;;3.80;2.10;;;10.50;99.90;;;;;;5116433;28;20272;-64
2023/04/01 10:17:39;;;;;;;2.78;2.53;;;10.40;99.90;;;;;;5116431;28;20033;-67
2023/04/01 10:20:37;;;;;;;5.18;2.70;;;10.40;99.90;;;;;;5117168;28;20035;-62
2023/04/01 10:23:15;;;;;;;3.35;3.05;;;10.40;99.90;;;;;;5117231;28;20270;-65
2023/04/01 10:25:47;;;;;;;3.33;2.80;;;10.40;99.90;;;;;;5116676;28;20412;-59
2023/04/01 10:28:42;;;;;;;4.22;3.30;;;10.40;99.90;;;;;;5116360;28;20074;-66
2023/04/01 10:31:32;;;;;;;5.68;4.72;;;10.40;99.90;;;;;;5117195;28;20407;-67
2023/04/01 10:34:17;;;;;;;5.03;3.58;;;10.40;99.90;;;;;;5116413;28;20416;-61
2023/04/01 10:36:48;;;;;;;4.80;4.00;;;10.40;99.90;;;;;;5116299;28;20092;-66
2023/04/01 10:39:29;;;;;;;7.10;4.60;;;10.40;99.90;;;;;;5116307;28;20034;-60
2023/04/01 10:42:08;;;;;;;4.93;4.40;;;10.30;99.90;;;;;;5100178;28;20041;-60
2023/04/01 10:45:08;;;;;;;6.73;4.50;;;10.50;99.90;;;;;;5117055;28;20383;-68
2023/04/01 10:48:13;;;;;;;4.72;3.22;;;10.60;99.90;;;;;;5116142;28;20024;-64
2023/04/01 10:51:01;;;;;;;2.88;2.40;;;10.50;99.90;;;;;;5116913;28;20028;-64
2023/04/01 10:53:45;;;;;;;2.40;2.20;;;10.50;99.90;;;;;;5116092;28;20028;-68
2023/04/01 10:56:50;;;;;;;4.05;2.50;;;10.50;99.90;;;;;;5116898;28;20093;-67
2023/04/01 11:00:05;;;;;;;4.82;3.00;;;10.50;99.90;;;;;;5117533;28;20039;-66
2023/04/01 11:03:32;;;;;;;4.15;3.08;;;10.40;99.90;;;;;;5119586;28;20440;-64
2023/04/01 11:06:38;;;;;;;6.50;2.88;;;10.60;99.90;;;;;;5120465;28;20047;-64
2023/04/01 11:09:30;;;;;;;4.70;3.40;;;10.50;99.90;;;;;;5119808;28;20072;-67
2023/04/01 11:12:02;;;;;;;5.85;3.17;;;10.50;99.90;;;;;;5109118;28;20035;-70
2023/04/01 11:14:50;;;;;;;7.55;3.35;;;10.30;99.90;;;;;;5119643;28;20039;-67
2023/04/01 11:17:37;;;;;;;6.90;3.20;;;10.30;99.90;;;;;;5119737;28;20035;-66
2023/04/01 11:20:16;;;;;;;5.20;3.50;;;10.30;99.90;;;;;;5119734;28;20027;-62
2023/04/01 11:22:45;;;;;;;6.28;3.83;;;10.30;99.90;;;;;;5119650;28;20323;-62
2023/04/01 11:25:29;;;;;;;4.68;3.33;;;10.30;99.90;;;;;;5119351;28;20092;-68
2023/04/01 11:28:49;;;;;;;4.68;3.17;;;10.40;99.90;;;;;;5119434;28;20036;-69
2023/04/01 11:31:18;;;;;;;3.35;2.72;;;10.30;99.90;;;;;;5119341;28;20042;-68
2023/04/01 11:34:02;;;;;;;6.25;3.22;;;10.30;99.90;;;;;;5119330;28;20053;-68
2023/04/01 11:36:48;;;;;;;3.70;2.53;;;10.30;99.90;;;;;;5119239;28;20526;-66
2023/04/01 11:39:42;;;;;;;3.55;2.30;;;10.20;99.90;;;;;;5119220;28;20289;-69
2023/04/01 11:42:54;;;;;;;5.97;2.72;;;10.20;99.90;;;;;;5119691;28;20078;-67
2023/04/01 11:46:24;;;;;;;3.50;2.47;;;10.20;99.90;;;;;;5097758;28;20400;-66
2023/04/01 11:49:00;;;;;;;3.67;2.55;;;10.40;99.90;;;;;;5118998;28;20315;-67
2023/04/01 11:51:52;;;;;;;3.70;2.78;;;10.50;99.90;;;;;;5119202;28;20024;-63
2023/04/01 11:54:55;;;;;;;5.00;2.78;;;10.60;99.90;;;;;;5118896;28;20050;-64
2023/04/01 11:57:52;;;;;;;4.97;2.83;;;10.60;99.90;;;;;;5119751;28;20092;-63
2023/04/01 12:00:31;;;;;;;4.22;2.60;;;10.70;99.90;;;;;;5118854;28;20057;-66
2023/04/01 12:03:35;;;;;;;4.07;1.88;;;10.70;99.90;;;;;;5119541;28;20169;-66
2023/04/01 12:06:00;;;;;;;;;;;10.80;99.90;;;;;;5119804;28;20086;-67
2023/04/01 12:08:46;;;;;;;3.53;1.85;;;10.80;99.90;;;;;;5119352;28;19935;-60
2023/04/01 12:11:23;;;;;;;3.78;2.15;;;10.90;99.90;;;;;;5118283;28;20278;-63
2023/04/01 12:14:08;;;;;;;5.80;2.30;;;10.80;99.90;;;;;;5118240;28;20032;-70
2023/04/01 12:16:43;;;;;;;3.97;2.75;;;10.80;99.90;;;;;;5118697;28;20065;-66
2023/04/01 12:19:36;;;;;;;3.83;3.47;;;10.90;99.90;;;;;;5118114;28;20039;-68
2023/04/01 12:22:17;;;;;;;2.95;2.50;;;10.70;99.90;;;;;;5118437;28;20031;-70
2023/04/01 12:24:47;;;;;;;3.47;2.78;;;10.70;99.90;;;;;;5118872;28;20027;-63
2023/04/01 12:27:25;;;;;;;3.70;2.47;;;10.70;99.90;;;;;;5118929;28;20073;-63
2023/04/01 12:30:13;;;;;;;4.57;3.28;;;10.70;99.90;;;;;;5118811;28;20158;-63
2023/04/01 12:33:01;;;;;;;5.30;3.55;;;10.80;99.90;;;;;;5117992;28;20274;-68
2023/04/01 12:36:00;;;;;;;3.97;3.38;;;11.00;99.90;;;;;;5118694;28;20035;-66
2023/04/01 12:38:35;;;;;;;3.45;2.78;;;11.10;99.90;;;;;;5119048;27;20031;-65
2023/04/01 12:41:14;;;;;;;3.25;2.38;;;11.00;99.90;;;;;;5118953;28;20308;-61
2023/04/01 12:43:58;;;;;;;3.03;2.13;;;11.00;99.90;;;;;;5118807;28;20414;-67
2023/04/01 12:46:45;;;;;;;2.75;2.55;;;11.10;99.90;;;;;;5118596;28;20063;-68
2023/04/01 12:49:20;;;;;;;2.50;2.30;;;11.10;99.90;;;;;;5118574;28;20047;-63
2023/04/01 12:51:55;;;;;;;2.80;2.50;;;11.20;99.90;;;;;;5117830;28;20099;-65
2023/04/01 12:54:30;;;;;;;2.50;2.30;;;11.00;99.90;;;;;;5117739;28;20031;-67
2023/04/01 12:57:08;;;;;;;3.33;3.03;;;10.80;99.90;;;;;;5118504;28;20031;-69
2023/04/01 13:00:03;;;;;;;3.42;3.10;;;10.90;99.90;;;;;;5118467;28;20035;-69
2023/04/01 13:02:53;;;;;;;5.53;3.15;;;10.90;99.90;;;;;;5118086;28;20269;-69
2023/04/01 13:05:55;;;;;;;3.47;3.00;;;11.10;99.90;;;;;;5117579;28;20084;-68
2023/04/01 13:08:59;;;;;;;2.90;2.60;;;11.20;99.90;;;;;;5117530;28;20405;-66
2023/04/01 13:12:09;;;;;;;3.10;2.58;;;11.20;99.90;;;;;;5100429;28;20322;-60
2023/04/01 13:15:12;;;;;;;4.35;3.65;;;11.10;99.90;;;;;;5105460;28;20070;-63
2023/04/01 13:18:21;;;;;;;4.78;3.90;;;10.90;99.90;;;;;;5118350;28;20046;-60
2023/04/01 13:21:28;;;;;;;4.57;4.13;;;11.00;99.90;;;;;;5118192;28;20330;-62
2023/04/01 13:24:12;;;;;;;5.60;4.68;;;10.80;99.90;;;;;;5087750;28;20292;-65
2023/04/01 13:27:07;;;;;;;5.35;4.93;;;10.70;99.90;;;;;;5117967;28;20055;-63
2023/04/01 13:29:40;;;;;;;8.30;5.93;;;10.80;99.90;;;;;;5117944;28;20024;-67
2023/04/01 13:32:14;;;;;;;7.15;6.40;;;10.90;99.90;;;;;;5117125;28;20027;-64
2023/04/01 13:34:40;;;;;;;7.72;5.22;;;10.60;99.90;;;;;;5118151;28;20032;-66
2023/04/01 13:37:39;;;;;;;7.03;4.82;;;10.60;99.90;;;;;;5117726;28;20438;-64
2023/04/01 13:40:17;;;;;;;5.00;4.50;;;10.60;99.90;;;;;;5048249;28;20320;-64
2023/04/01 13:42:51;;;;;;;5.40;4.90;;;10.70;99.90;;;;;;5117559;28;20047;-65
2023/04/01 13:45:24;;;;;;;4.60;4.20;;;10.70;99.90;;;;;;5116933;28;20108;-66
2023/04/01 13:48:08;;;;;;;;;;;10.60;99.90;;;;;;5118091;28;20024;-67
2023/04/01 13:50:38;;;;;;;4.95;4.45;;;10.60;99.90;;;;;;5117576;28;19998;-66
2023/04/01 13:53:40;;;;;;;3.92;3.63;;;10.80;99.90;;;;;;5117527;28;20076;-63